Time;durP1;ratioP1;P1;durP2;ratioP2;P2;SDS_P1;SDS_P2;PMS_P1;PMS_P2;Temp;Humidity;BMP_temperature;BMP_pressure;BME280_temperature;BME280_humidity;BME280_pressure;Samples;Min_cycle;Max_cycle;Signal;HPM_P1;HPM_P2
2022/07/21 00:01:13;;;;;;;27.58;18.85;;;;;;;20.34;100.00;101688.00;4993355;28;20063;-66
2022/07/21 00:03:38;;;;;;;26.23;18.80;;;;;;;20.42;100.00;101693.53;4993470;28;20031;-66
2022/07/21 00:06:04;;;;;;;26.00;16.98;;;;;;;20.41;100.00;101690.97;4993257;28;20026;-65
2022/07/21 00:08:31;;;;;;;25.40;16.98;;;;;;;20.44;100.00;101693.44;4993217;28;20038;-66
2022/07/21 00:10:56;;;;;;;29.95;19.45;;;;;;;20.41;100.00;101691.84;4993348;28;20189;-66
2022/07/21 00:13:22;;;;;;;25.08;16.92;;;;;;;20.51;100.00;101693.75;4992206;28;20034;-65
2022/07/21 00:15:48;;;;;;;28.27;18.20;;;;;;;20.43;100.00;101691.69;4993424;28;20046;-65
2022/07/21 00:18:14;;;;;;;24.48;16.92;;;;;;;20.17;100.00;101689.50;4993249;28;20099;-65
2022/07/21 00:20:40;;;;;;;25.38;17.98;;;;;;;20.28;100.00;101693.97;4992977;28;20022;-65
2022/07/21 00:23:05;;;;;;;24.00;17.20;;;;;;;19.90;100.00;101700.97;5012589;28;20104;-65
2022/07/21 00:25:31;;;;;;;24.92;16.98;;;;;;;19.95;100.00;101697.84;5012583;28;20034;-65
2022/07/21 00:27:57;;;;;;;25.55;18.10;;;;;;;19.97;100.00;101697.72;5012335;28;20023;-65
2022/07/21 00:30:22;;;;;;;24.33;17.55;;;;;;;20.05;100.00;101701.44;5012219;28;20130;-66
2022/07/21 00:32:48;;;;;;;30.08;18.48;;;;;;;20.14;100.00;101700.63;5012467;28;20054;-66
2022/07/21 00:35:13;;;;;;;29.17;18.77;;;;;;;20.27;100.00;101703.06;5012754;28;20030;-65
2022/07/21 00:37:40;;;;;;;28.52;17.73;;;;;;;20.37;100.00;101700.38;5012569;28;20029;-66
2022/07/21 00:40:07;;;;;;;24.20;17.90;;;;;;;20.34;100.00;101698.81;5012565;28;20052;-66
2022/07/21 00:42:33;;;;;;;29.48;19.30;;;;;;;20.37;100.00;101692.25;5012586;28;20062;-66
2022/07/21 00:45:00;;;;;;;27.15;18.45;;;;;;;20.24;100.00;101695.25;5012513;28;20043;-65
2022/07/21 00:47:29;;;;;;;28.35;18.55;;;;;;;20.49;100.00;101696.59;5011289;28;20070;-65
2022/07/21 00:49:56;;;;;;;25.98;19.42;;;;;;;20.30;100.00;101696.53;5012219;28;20085;-66
2022/07/21 00:52:22;;;;;;;26.88;19.25;;;;;;;20.21;100.00;101697.34;5012211;28;20057;-66
2022/07/21 00:54:47;;;;;;;28.15;18.52;;;;;;;20.09;100.00;101692.06;5012403;28;20030;-65
2022/07/21 00:57:13;;;;;;;27.15;19.27;;;;;;;20.29;100.00;101694.81;5008937;28;20041;-65
2022/07/21 00:59:40;;;;;;;28.67;19.27;;;;;;;20.24;100.00;101688.97;4992901;28;20027;-66
2022/07/21 01:02:06;;;;;;;28.15;19.52;;;;;;;19.99;100.00;101680.34;5011919;28;20065;-65
2022/07/21 01:04:32;;;;;;;27.40;19.08;;;;;;;20.13;100.00;101679.09;5012090;28;20029;-65
2022/07/21 01:07:00;;;;;;;27.60;19.52;;;;;;;20.26;100.00;101676.13;5012146;28;20034;-66
2022/07/21 01:09:26;;;;;;;32.97;20.75;;;;;;;20.28;100.00;101666.88;5011927;28;20154;-66
2022/07/21 01:11:51;;;;;;;33.38;20.38;;;;;;;20.29;100.00;101667.75;5011907;28;20038;-66
2022/07/21 01:14:18;;;;;;;28.83;19.48;;;;;;;20.34;100.00;101673.59;5011777;28;20057;-65
2022/07/21 01:16:43;;;;;;;27.88;19.17;;;;;;;20.33;100.00;101679.97;4994462;28;20026;-66
2022/07/21 01:19:09;;;;;;;28.98;18.85;;;;;;;20.10;100.00;101676.66;5011756;28;20026;-65
2022/07/21 01:21:46;;;;;;;26.55;19.40;;;;;;;20.11;100.00;101671.09;5011568;28;20046;-66
2022/07/21 01:24:12;;;;;;;30.10;20.70;;;;;;;20.03;100.00;101670.97;5011636;28;20053;-65
2022/07/21 01:26:45;;;;;;;28.85;19.98;;;;;;;20.03;100.00;101673.66;4993726;28;20041;-65
2022/07/21 01:29:11;;;;;;;28.27;18.60;;;;;;;19.88;100.00;101672.31;4991978;28;20027;-67
2022/07/21 01:31:40;;;;;;;27.17;17.27;;;;;;;19.83;100.00;101672.75;4992175;28;20045;-65
2022/07/21 01:34:05;;;;;;;25.50;17.30;;;;;;;19.95;100.00;101680.75;4991873;28;20059;-66
2022/07/21 01:36:31;;;;;;;24.38;16.92;;;;;;;19.98;100.00;101675.06;4992080;28;20045;-65
2022/07/21 01:41:41;;;;;;;23.25;16.90;;;;;;;19.94;100.00;101673.63;4991949;28;20098;-66
2022/07/21 01:44:09;;;;;;;26.23;17.33;;;;;;;19.86;100.00;101675.16;4991634;28;20039;-68
2022/07/21 01:46:42;;;;;;;22.80;16.63;;;;;;;19.96;100.00;101663.50;4991805;28;20042;-67
2022/07/21 01:49:07;;;;;;;23.02;16.67;;;;;;;19.94;100.00;101670.94;4991768;28;20035;-67
2022/07/21 01:51:33;;;;;;;22.50;16.90;;;;;;;19.73;100.00;101676.38;4991753;28;20031;-65
2022/07/21 01:53:59;;;;;;;22.23;15.93;;;;;;;19.61;100.00;101673.78;4992285;28;20307;-66
2022/07/21 01:56:26;;;;;;;26.13;17.10;;;;;;;19.75;100.00;101677.13;4991491;28;20078;-66
2022/07/21 01:58:56;;;;;;;21.45;16.10;;;;;;;19.54;100.00;101674.44;4991322;28;20043;-66
2022/07/21 02:01:26;;;;;;;23.67;16.13;;;;;;;19.50;100.00;101673.84;4991185;28;20076;-66
2022/07/21 02:03:52;;;;;;;25.52;17.83;;;;;;;19.70;100.00;101672.13;4991175;28;20031;-65
2022/07/21 02:06:17;;;;;;;19.85;14.70;;;;;;;19.62;100.00;101671.94;4990471;28;20041;-65
2022/07/21 02:08:42;;;;;;;24.13;16.10;;;;;;;19.60;100.00;101669.38;4991306;28;20043;-66
2022/07/21 02:11:12;;;;;;;21.30;15.77;;;;;;;19.68;100.00;101668.69;4990207;28;20108;-66
2022/07/21 02:13:38;;;;;;;27.92;17.20;;;;;;;19.66;100.00;101658.00;4990839;28;20026;-66
2022/07/21 02:16:04;;;;;;;24.50;17.42;;;;;;;19.58;100.00;101656.94;4990263;28;20042;-66
2022/07/21 02:18:30;;;;;;;26.67;16.73;;;;;;;19.63;100.00;101654.72;4990903;28;20054;-65
2022/07/21 02:20:55;;;;;;;24.20;17.98;;;;;;;19.54;100.00;101653.66;4990889;28;20318;-66
2022/07/21 02:23:24;;;;;;;22.50;16.30;;;;;;;19.54;100.00;101660.91;4990760;28;20051;-67
2022/07/21 02:25:51;;;;;;;26.25;16.42;;;;;;;19.49;100.00;101649.63;4990435;28;20037;-65
2022/07/21 02:28:18;;;;;;;24.35;18.20;;;;;;;19.46;100.00;101655.31;4990370;28;20039;-66
2022/07/21 02:30:45;;;;;;;26.98;17.73;;;;;;;19.42;100.00;101657.41;4990555;28;20026;-65
2022/07/21 02:33:10;;;;;;;25.80;19.33;;;;;;;19.32;100.00;101661.91;4989537;28;20027;-65
2022/07/21 02:35:36;;;;;;;29.08;18.92;;;;;;;19.33;100.00;101663.66;4990368;28;20054;-67
2022/07/21 02:38:02;;;;;;;32.33;19.30;;;;;;;19.25;100.00;101666.16;4989098;28;20050;-66
2022/07/21 02:40:27;;;;;;;30.08;19.88;;;;;;;19.36;100.00;101661.53;4989975;28;20042;-65
2022/07/21 02:42:53;;;;;;;25.42;19.02;;;;;;;19.46;100.00;101658.00;4990020;28;20046;-65
2022/07/21 02:45:18;;;;;;;26.38;18.23;;;;;;;19.33;100.00;101653.69;4990025;28;20058;-66
2022/07/21 02:48:04;;;;;;;34.05;19.52;;;;;;;19.35;100.00;101646.28;4989962;28;20180;-68
2022/07/21 02:50:33;;;;;;;28.67;18.40;;;;;;;19.28;100.00;101655.94;4989708;28;20023;-67
2022/07/21 02:53:00;;;;;;;31.30;20.38;;;;;;;19.21;100.00;101654.75;4988848;28;20043;-66
2022/07/21 02:55:26;;;;;;;31.73;20.33;;;;;;;19.19;100.00;101656.75;4988758;28;20073;-66
2022/07/21 02:58:18;;;;;;;30.88;21.05;;;;;;;19.16;100.00;101659.69;4989571;28;20054;-66
2022/07/21 03:00:51;;;;;;;29.47;19.80;;;;;;;19.13;100.00;101654.56;4998493;28;20038;-67
2022/07/21 03:03:17;;;;;;;27.83;19.15;;;;;;;19.08;100.00;101652.25;5008113;28;20453;-65
2022/07/21 03:05:43;;;;;;;27.88;20.05;;;;;;;18.88;100.00;101642.31;5008946;28;20042;-66
2022/07/21 03:08:10;;;;;;;29.08;19.27;;;;;;;18.89;100.00;101639.47;5008016;28;20038;-66
2022/07/21 03:10:37;;;;;;;30.55;19.33;;;;;;;19.09;100.00;101635.06;5009136;28;20085;-66
2022/07/21 03:13:03;;;;;;;25.60;18.67;;;;;;;19.07;100.00;101647.81;5008834;28;20090;-67
2022/07/21 03:15:29;;;;;;;28.50;19.45;;;;;;;18.85;100.00;101651.53;5008935;28;20046;-67
2022/07/21 03:17:56;;;;;;;28.80;19.63;;;;;;;18.72;100.00;101645.44;5008860;28;20042;-66
2022/07/21 03:20:26;;;;;;;32.30;20.92;;;;;;;18.67;100.00;101655.75;5008943;28;20034;-66
2022/07/21 03:22:51;;;;;;;27.50;19.35;;;;;;;18.68;100.00;101659.34;5009168;28;20037;-67
2022/07/21 03:25:17;;;;;;;30.30;19.92;;;;;;;18.64;100.00;101645.22;5002148;28;20039;-67
2022/07/21 03:27:44;;;;;;;30.33;20.48;;;;;;;18.67;100.00;101653.03;4988818;28;20031;-67
2022/07/21 03:30:11;;;;;;;33.60;20.48;;;;;;;18.66;100.00;101648.63;4988669;28;20035;-66
2022/07/21 03:32:36;;;;;;;34.38;21.23;;;;;;;18.66;100.00;101645.09;4989716;28;20078;-67
2022/07/21 03:35:03;;;;;;;31.05;20.75;;;;;;;18.57;100.00;101654.81;4989937;28;20027;-66
2022/07/21 03:37:29;;;;;;;31.40;21.13;;;;;;;18.66;100.00;101655.88;4989623;28;20057;-67
2022/07/21 03:39:54;;;;;;;34.67;22.63;;;;;;;18.67;100.00;101655.75;4989855;28;20030;-67
2022/07/21 03:42:19;;;;;;;36.30;23.02;;;;;;;18.72;100.00;101650.00;4988704;28;20327;-67
2022/07/21 03:44:45;;;;;;;34.72;21.65;;;;;;;18.72;100.00;101650.84;4989683;28;20045;-67
2022/07/21 03:47:10;;;;;;;35.55;22.77;;;;;;;18.70;100.00;101649.28;4989590;28;20470;-66
2022/07/21 03:49:36;;;;;;;34.28;21.88;;;;;;;18.72;100.00;101644.59;4989560;28;20053;-67
2022/07/21 03:52:01;;;;;;;38.72;21.75;;;;;;;18.79;100.00;101645.78;4989576;28;20054;-67
2022/07/21 03:54:27;;;;;;;32.70;21.27;;;;;;;18.63;100.00;101651.63;4989714;28;20038;-67
2022/07/21 03:56:52;;;;;;;31.73;22.30;;;;;;;18.52;100.00;101651.63;4988495;28;20034;-67
2022/07/21 03:59:18;;;;;;;36.22;22.83;;;;;;;18.51;100.00;101656.19;4989522;28;20027;-66
2022/07/21 04:01:43;;;;;;;37.30;21.77;;;;;;;18.61;100.00;101657.13;5006136;28;20062;-66
2022/07/21 04:04:09;;;;;;;33.47;23.63;;;;;;;18.60;100.00;101652.72;4991827;28;20070;-67
2022/07/21 04:06:35;;;;;;;37.15;22.73;;;;;;;18.71;100.00;101650.97;5007824;28;20118;-66
2022/07/21 04:09:00;;;;;;;36.42;23.63;;;;;;;18.74;100.00;101650.75;5008687;28;20030;-67
2022/07/21 04:11:26;;;;;;;35.40;23.48;;;;;;;18.71;100.00;101637.47;5008748;28;20038;-67
2022/07/21 04:13:51;;;;;;;40.63;23.02;;;;;;;18.82;100.00;101638.25;5008576;28;20037;-67
2022/07/21 04:16:17;;;;;;;39.42;23.77;;;;;;;18.81;100.00;101639.25;5008719;28;20038;-66
2022/07/21 04:18:42;;;;;;;35.55;23.27;;;;;;;18.72;100.00;101644.59;5008398;28;20030;-67
2022/07/21 04:21:08;;;;;;;43.00;24.35;;;;;;;18.60;100.00;101635.66;5008550;28;20054;-67
2022/07/21 04:23:33;;;;;;;36.33;23.70;;;;;;;18.62;100.00;101639.97;5008820;28;20286;-66
2022/07/21 04:25:58;;;;;;;34.30;23.23;;;;;;;18.78;100.00;101641.38;5008807;28;20060;-67
2022/07/21 04:28:24;;;;;;;37.33;23.85;;;;;;;18.71;100.00;101648.28;5008890;28;20053;-66
2022/07/21 04:30:49;;;;;;;37.20;22.98;;;;;;;18.81;100.00;101647.38;5008684;28;20027;-66
2022/07/21 04:33:15;;;;;;;33.97;23.10;;;;;;;18.95;100.00;101653.44;5007726;28;20057;-66
2022/07/21 04:35:40;;;;;;;37.05;23.50;;;;;;;18.83;100.00;101655.38;5008240;28;20038;-66
2022/07/21 04:38:08;;;;;;;37.67;22.63;;;;;;;18.81;100.00;101650.06;5008574;28;20042;-66
2022/07/21 04:40:33;;;;;;;38.78;25.35;;;;;;;18.86;100.00;101652.38;5011695;28;20030;-66
2022/07/21 04:42:59;;;;;;;36.30;22.85;;;;;;;18.98;100.00;101656.75;5010745;28;20041;-66
2022/07/21 04:45:24;;;;;;;39.90;24.08;;;;;;;19.05;100.00;101659.78;5010309;28;20026;-66
2022/07/21 04:47:52;;;;;;;39.42;23.35;;;;;;;19.08;100.00;101660.38;5011918;28;20349;-66
2022/07/21 04:50:20;;;;;;;35.38;23.55;;;;;;;18.96;100.00;101650.59;4994793;28;20029;-66
2022/07/21 04:52:46;;;;;;;38.15;24.27;;;;;;;19.00;100.00;101643.94;5011046;28;20286;-66
2022/07/21 04:55:12;;;;;;;40.67;24.25;;;;;;;18.95;100.00;101638.09;5012047;28;20030;-66
2022/07/21 04:57:45;;;;;;;39.97;26.33;;;;;;;18.91;100.00;101636.63;5005721;28;20030;-66
2022/07/21 05:00:14;;;;;;;43.78;26.75;;;;;;;18.99;100.00;101638.69;4996736;28;20036;-66
2022/07/21 05:02:40;;;;;;;40.85;25.67;;;;;;;19.01;100.00;101636.69;5010905;28;20031;-66
2022/07/21 05:05:07;;;;;;;39.92;27.20;;;;;;;19.00;100.00;101634.97;5008357;28;20058;-67
2022/07/21 05:07:33;;;;;;;50.20;29.02;;;;;;;19.20;100.00;101639.50;5009508;28;20065;-65
2022/07/21 05:09:59;;;;;;;43.50;26.33;;;;;;;19.14;100.00;101635.50;5009774;28;20093;-65
2022/07/21 05:12:25;;;;;;;37.42;26.27;;;;;;;19.13;100.00;101630.25;5009662;28;20030;-64
2022/07/21 05:14:50;;;;;;;45.38;27.05;;;;;;;19.08;100.00;101633.34;5010020;28;20026;-64
2022/07/21 05:17:16;;;;;;;39.10;25.30;;;;;;;19.48;100.00;101623.56;5007333;28;20037;-66
2022/07/21 05:19:43;;;;;;;39.95;25.27;;;;;;;19.74;100.00;101614.03;4990197;28;20035;-66
2022/07/21 05:22:09;;;;;;;36.10;25.13;;;;;;;19.70;100.00;101617.13;4988963;28;20035;-66
2022/07/21 05:24:34;;;;;;;36.97;23.55;;;;;;;19.60;100.00;101612.53;5003735;28;20102;-66
2022/07/21 05:27:00;;;;;;;41.63;24.67;;;;;;;19.48;100.00;101615.44;5000032;28;20333;-65
2022/07/21 05:29:25;;;;;;;34.40;23.55;;;;;;;19.70;100.00;101612.56;5002406;28;20029;-66
2022/07/21 05:31:51;;;;;;;40.53;23.80;;;;;;;19.72;100.00;101617.84;5006405;28;20050;-65
2022/07/21 05:34:16;;;;;;;39.05;24.25;;;;;;;19.83;100.00;101612.31;5009644;28;20030;-66
2022/07/21 05:36:42;;;;;;;40.95;25.92;;;;;;;19.76;100.00;101605.75;5009943;28;20036;-65
2022/07/21 05:39:07;;;;;;;37.95;25.33;;;;;;;19.87;100.00;101609.19;5009912;28;20049;-66
2022/07/21 05:41:33;;;;;;;39.72;24.35;;;;;;;19.76;100.00;101608.47;5009969;28;20030;-65
2022/07/21 05:43:58;;;;;;;37.53;25.80;;;;;;;19.83;100.00;101598.78;5009171;28;20034;-65
2022/07/21 05:46:24;;;;;;;42.67;24.58;;;;;;;19.91;100.00;101599.81;5009940;28;20057;-65
2022/07/21 05:48:49;;;;;;;41.47;26.48;;;;;;;20.03;100.00;101597.84;5009861;28;20049;-65
2022/07/21 05:51:14;;;;;;;48.63;27.38;;;;;;;20.11;100.00;101603.41;5008755;28;20052;-66
2022/07/21 05:53:40;;;;;;;45.70;28.00;;;;;;;20.07;100.00;101601.97;5008762;28;20038;-66
2022/07/21 05:56:06;;;;;;;42.85;26.00;;;;;;;20.27;100.00;101602.00;5009244;28;20044;-66
2022/07/21 05:58:33;;;;;;;43.72;27.63;;;;;;;19.91;100.00;101596.25;4996178;28;20090;-66
2022/07/21 06:01:08;;;;;;;46.30;28.50;;;;;;;20.20;100.00;101585.47;4963958;28;1060801;-66
2022/07/21 06:03:44;;;;;;;48.55;27.92;;;;;;;20.41;100.00;101601.56;5010639;28;20057;-65
2022/07/21 06:06:12;;;;;;;50.25;29.58;;;;;;;20.72;100.00;101596.03;5010418;28;20053;-65
2022/07/21 06:08:39;;;;;;;52.45;30.98;;;;;;;20.69;100.00;101589.91;5010095;28;20042;-65
2022/07/21 06:11:06;;;;;;;50.05;31.20;;;;;;;20.75;100.00;101598.47;5010205;28;20049;-65
2022/07/21 06:13:32;;;;;;;53.88;30.55;;;;;;;20.61;100.00;101602.47;5010315;28;20094;-64
2022/07/21 06:15:57;;;;;;;47.50;29.30;;;;;;;20.42;100.00;101604.13;5010347;28;20065;-64
2022/07/21 06:18:23;;;;;;;46.53;28.35;;;;;;;20.52;100.00;101608.72;5009192;28;20042;-64
2022/07/21 06:20:48;;;;;;;51.10;30.65;;;;;;;20.90;100.00;101611.41;5010081;28;20038;-64
2022/07/21 06:23:14;;;;;;;44.00;28.85;;;;;;;20.94;100.00;101614.69;5010117;28;20037;-64
2022/07/21 06:25:39;;;;;;;46.63;30.70;;;;;;;21.50;100.00;101618.41;4999110;28;20023;-64
2022/07/21 06:28:05;;;;;;;51.17;29.98;;;;;;;21.84;96.77;101616.81;4990810;28;20070;-65
2022/07/21 06:30:30;;;;;;;42.67;27.90;;;;;;;22.83;95.50;101605.03;4989828;28;20030;-65
2022/07/21 06:32:56;;;;;;;48.10;30.02;;;;;;;23.39;91.03;101609.16;4990710;28;20053;-65
2022/07/21 06:35:21;;;;;;;39.05;27.23;;;;;;;23.42;90.30;101614.28;4990415;28;20034;-65
2022/07/21 06:37:47;;;;;;;43.22;28.33;;;;;;;22.63;91.60;101617.97;4990178;28;20039;-65
2022/07/21 06:40:13;;;;;;;48.40;29.45;;;;;;;21.85;95.36;101632.09;4990325;28;20047;-65
2022/07/21 06:42:39;;;;;;;48.47;29.38;;;;;;;21.66;96.38;101632.19;4990308;28;20035;-65
2022/07/21 06:45:05;;;;;;;43.90;28.02;;;;;;;21.69;96.26;101635.47;4989493;28;20031;-65
2022/07/21 06:47:30;;;;;;;45.00;28.52;;;;;;;21.35;96.49;101637.88;4989977;28;20070;-65
2022/07/21 06:50:01;;;;;;;43.70;30.90;;;;;;;21.23;97.43;101644.44;4990196;28;20039;-64
2022/07/21 06:52:27;;;;;;;40.70;29.05;;;;;;;20.85;99.51;101642.66;4990454;28;20036;-65
2022/07/21 06:54:53;;;;;;;49.53;30.13;;;;;;;20.74;98.45;101637.41;4989435;28;20047;-64
2022/07/21 06:57:18;;;;;;;44.78;29.80;;;;;;;20.72;98.99;101645.66;4990108;28;20042;-65
2022/07/21 06:59:44;;;;;;;46.47;29.73;;;;;;;20.72;100.00;101647.53;4991094;28;20031;-64
2022/07/21 07:02:09;;;;;;;48.95;29.02;;;;;;;21.44;97.67;101653.28;5008252;28;20042;-64
2022/07/21 07:04:34;;;;;;;50.22;30.55;;;;;;;21.82;94.32;101656.81;5008336;28;20041;-65
2022/07/21 07:07:00;;;;;;;49.63;29.98;;;;;;;21.76;95.30;101665.56;5009567;28;20032;-64
2022/07/21 07:09:25;;;;;;;48.95;31.48;;;;;;;21.41;94.77;101663.56;5009625;28;20046;-65
2022/07/21 07:11:52;;;;;;;42.40;29.38;;;;;;;21.26;95.91;101662.28;5009793;28;20197;-65
2022/07/21 07:14:18;;;;;;;47.65;29.15;;;;;;;21.36;95.69;101666.72;5009690;28;20026;-65
2022/07/21 07:16:43;;;;;;;46.10;30.52;;;;;;;21.66;94.17;101673.75;5009887;28;20026;-66
2022/07/21 07:19:09;;;;;;;43.40;27.30;;;;;;;21.60;93.56;101666.22;5008435;28;20053;-65
2022/07/21 07:21:34;;;;;;;45.50;29.63;;;;;;;21.79;92.93;101665.28;5009299;28;20065;-65
2022/07/21 07:24:01;;;;;;;49.88;30.27;;;;;;;22.04;91.06;101662.84;4992194;28;20038;-65
2022/07/21 07:26:27;;;;;;;50.65;30.20;;;;;;;22.04;90.92;101662.84;4992041;28;20367;-65
2022/07/21 07:28:53;;;;;;;47.47;30.38;;;;;;;21.63;90.94;101659.63;4989854;28;20045;-64
2022/07/21 07:31:18;;;;;;;51.47;29.45;;;;;;;21.79;92.54;101664.41;4988594;28;20034;-65
2022/07/21 07:33:44;;;;;;;50.42;31.05;;;;;;;22.08;91.44;101658.81;4989511;28;20034;-65
2022/07/21 07:36:12;;;;;;;41.55;28.02;;;;;;;22.35;89.10;101653.41;4989715;28;20027;-65
2022/07/21 07:38:38;;;;;;;48.30;29.38;;;;;;;22.11;89.64;101658.56;4989478;28;20042;-65
2022/07/21 07:41:04;;;;;;;43.78;29.55;;;;;;;22.29;88.82;101656.75;4989652;28;20027;-65
2022/07/21 07:43:29;;;;;;;54.53;30.48;;;;;;;22.07;89.13;101652.53;4989677;28;20063;-65
2022/07/21 07:45:55;;;;;;;44.90;29.35;;;;;;;21.98;90.66;101657.00;4972548;28;20042;-65
2022/07/21 07:48:20;;;;;;;44.78;29.63;;;;;;;21.84;90.21;101656.66;4989398;28;20077;-65
2022/07/21 07:50:46;;;;;;;42.45;28.08;;;;;;;21.67;90.71;101666.47;4988515;28;20101;-65
2022/07/21 07:53:11;;;;;;;44.05;28.42;;;;;;;22.07;91.08;101668.84;4989714;28;20034;-65
2022/07/21 07:55:37;;;;;;;43.50;27.42;;;;;;;21.51;92.64;101667.09;4989681;28;20038;-65
2022/07/21 07:58:02;;;;;;;42.88;25.85;;;;;;;21.65;92.05;101666.63;4988499;28;20043;-65
2022/07/21 08:00:28;;;;;;;41.30;28.33;;;;;;;21.46;92.85;101661.25;4996068;28;20095;-65
2022/07/21 08:02:53;;;;;;;41.67;28.02;;;;;;;21.94;92.24;101666.50;5009569;28;20042;-65
2022/07/21 08:05:19;;;;;;;38.75;26.05;;;;;;;21.85;90.49;101661.09;5007949;28;20238;-65
2022/07/21 08:07:44;;;;;;;41.55;27.17;;;;;;;21.94;89.41;101661.06;5009086;28;20046;-65
2022/07/21 08:10:12;;;;;;;36.75;26.15;;;;;;;21.68;90.80;101662.75;5009075;28;20038;-65
2022/07/21 08:12:38;;;;;;;40.33;26.52;;;;;;;21.48;90.40;101650.25;5008909;28;20026;-65
2022/07/21 08:15:04;;;;;;;36.92;25.35;;;;;;;21.79;90.19;101646.28;5012671;28;20087;-65
2022/07/21 08:17:30;;;;;;;36.70;24.77;;;;;;;21.76;89.90;101649.28;5012544;28;20057;-65
2022/07/21 08:19:56;;;;;;;38.67;25.13;;;;;;;22.00;89.85;101645.16;5012649;28;20050;-65
2022/07/21 08:22:21;;;;;;;39.45;24.60;;;;;;;21.72;88.99;101656.00;5012533;28;20051;-65
2022/07/21 08:24:47;;;;;;;41.35;24.30;;;;;;;21.98;88.88;101648.00;5009542;28;20054;-65
2022/07/21 08:27:12;;;;;;;39.85;25.65;;;;;;;21.82;88.58;101637.81;4993092;28;20052;-65
2022/07/21 08:29:38;;;;;;;40.10;23.83;;;;;;;21.76;88.76;101643.84;4992997;28;20043;-65
2022/07/21 08:32:04;;;;;;;44.20;26.15;;;;;;;22.06;88.52;101639.97;4992912;28;20042;-65
2022/07/21 08:34:30;;;;;;;44.15;26.17;;;;;;;21.92;87.45;101635.03;4992885;28;20031;-65
2022/07/21 08:36:56;;;;;;;40.03;24.75;;;;;;;22.21;87.19;101643.06;4991892;28;20047;-65
2022/07/21 08:39:21;;;;;;;39.00;24.65;;;;;;;22.37;88.70;101643.22;4992843;28;20039;-65
2022/07/21 08:41:47;;;;;;;42.60;24.52;;;;;;;22.41;87.84;101646.47;4992737;28;20041;-65
2022/07/21 08:44:14;;;;;;;37.78;25.02;;;;;;;22.27;88.00;101644.28;4992559;28;20049;-65
2022/07/21 08:46:41;;;;;;;41.47;23.70;;;;;;;21.89;89.14;101641.66;4992570;28;20034;-65
2022/07/21 08:49:09;;;;;;;41.10;24.80;;;;;;;21.91;88.19;101634.19;4992454;28;20089;-65
2022/07/21 08:51:35;;;;;;;41.70;25.58;;;;;;;22.24;88.64;101626.44;4992548;28;20074;-65
2022/07/21 08:54:01;;;;;;;39.25;23.63;;;;;;;22.13;86.92;101629.38;4992567;28;20090;-65
2022/07/21 08:56:26;;;;;;;40.22;23.63;;;;;;;22.39;88.90;101629.47;4992473;28;20034;-65
2022/07/21 08:58:52;;;;;;;35.35;22.08;;;;;;;22.52;85.80;101619.06;4992340;28;20033;-65
2022/07/21 09:01:17;;;;;;;36.40;22.27;;;;;;;22.76;87.55;101626.59;5005580;28;20034;-65
2022/07/21 09:03:43;;;;;;;39.05;23.23;;;;;;;22.35;88.04;101641.66;5012438;28;20084;-65
2022/07/21 09:06:15;;;;;;;38.33;20.98;;;;;;;21.91;89.38;101628.75;5011993;28;20031;-65
2022/07/21 09:08:47;;;;;;;;;;;;;;;21.71;89.81;101646.16;5012377;28;20077;-65
2022/07/21 09:11:12;;;;;;;;;;;;;;;21.57;90.48;101649.38;5011365;28;19932;-65
2022/07/21 09:13:40;;;;;;;40.00;20.90;;;;;;;21.43;92.23;101654.25;5011551;28;20225;-65
2022/07/21 09:16:06;;;;;;;37.20;20.02;;;;;;;21.67;93.69;101658.31;5011392;28;20058;-65
2022/07/21 09:18:31;;;;;;;34.60;21.58;;;;;;;21.11;92.87;101653.75;5011521;28;20356;-66
2022/07/21 09:20:58;;;;;;;29.58;20.33;;;;;;;21.19;93.32;101651.19;5011464;28;20092;-65
2022/07/21 09:23:24;;;;;;;36.92;21.13;;;;;;;21.07;93.24;101645.06;5011584;28;20034;-65
2022/07/21 09:25:55;;;;;;;36.50;20.88;;;;;;;21.23;93.45;101644.44;4997957;28;20041;-64
2022/07/21 09:28:23;;;;;;;37.30;20.45;;;;;;;21.30;94.51;101642.91;4991989;28;20035;-65
2022/07/21 09:31:00;;;;;;;36.67;21.55;;;;;;;21.18;93.26;101650.31;4991859;28;20041;-65
2022/07/21 09:33:37;;;;;;;33.65;21.30;;;;;;;21.49;93.88;101660.09;4991810;28;20135;-65
2022/07/21 09:36:09;;;;;;;38.25;20.35;;;;;;;21.53;93.27;101654.22;4991674;28;20094;-65
2022/07/21 09:38:41;;;;;;;32.85;21.65;;;;;;;21.10;94.15;101657.47;4991549;28;20050;-65
2022/07/21 09:41:15;;;;;;;36.42;20.15;;;;;;;21.52;93.60;101662.53;4991429;28;20030;-65
2022/07/21 09:43:47;;;;;;;34.65;20.02;;;;;;;21.43;93.37;101661.53;4991588;28;20022;-66
2022/07/21 09:46:17;;;;;;;;;;;;;;;21.42;94.18;101666.13;4992017;28;20033;-66
2022/07/21 09:48:45;;;;;;;30.40;19.20;;;;;;;21.31;95.13;101662.75;4991409;28;19926;-65
2022/07/21 09:51:34;;;;;;;31.75;20.98;;;;;;;21.23;95.38;101663.44;4991248;28;20049;-65
2022/07/21 09:54:05;;;;;;;24.00;15.30;;;;;;;21.00;96.14;101665.63;4990294;28;20114;-66
2022/07/21 09:56:33;;;;;;;20.85;12.38;;;;;;;20.89;96.63;101672.06;4991258;28;20026;-65
2022/07/21 09:59:01;;;;;;;15.02;8.95;;;;;;;20.66;96.40;101671.50;4991006;28;20042;-66
2022/07/21 10:01:27;;;;;;;15.80;8.70;;;;;;;20.86;96.13;101666.06;5005659;28;20061;-65
2022/07/21 10:03:54;;;;;;;7.15;5.20;;;;;;;20.79;95.03;101670.38;5009378;28;20026;-65
2022/07/21 10:06:27;;;;;;;5.60;3.53;;;;;;;20.63;95.49;101669.09;5010409;28;20034;-65
2022/07/21 10:08:54;;;;;;;4.45;3.05;;;;;;;20.85;95.64;101672.50;5010816;28;20187;-65
2022/07/21 10:11:20;;;;;;;6.88;2.65;;;;;;;20.62;96.52;101672.78;5010668;28;20058;-65
2022/07/21 10:13:46;;;;;;;2.20;2.00;;;;;;;20.40;98.43;101689.28;5009513;28;20053;-65
2022/07/21 10:16:12;;;;;;;2.65;2.40;;;;;;;20.42;99.95;101681.84;5010482;28;20302;-65
2022/07/21 10:18:49;;;;;;;3.22;2.85;;;;;;;20.16;100.00;101686.94;5009412;28;20041;-65
2022/07/21 10:21:34;;;;;;;2.53;2.33;;;;;;;20.22;100.00;101682.81;5010349;28;20042;-65
2022/07/21 10:24:00;;;;;;;3.75;2.90;;;;;;;20.35;100.00;101684.28;5010326;28;20050;-65
2022/07/21 10:26:25;;;;;;;9.05;3.03;;;;;;;20.30;100.00;101683.00;4993929;28;20035;-65
2022/07/21 10:28:51;;;;;;;4.80;3.28;;;;;;;20.26;100.00;101685.09;4990635;28;20053;-65
2022/07/21 10:31:22;;;;;;;5.15;3.83;;;;;;;20.13;100.00;101685.38;4989683;28;20031;-65
2022/07/21 10:33:50;;;;;;;4.78;3.80;;;;;;;19.86;100.00;101690.56;4990831;28;20042;-65
2022/07/21 10:36:27;;;;;;;8.73;4.32;;;;;;;19.85;100.00;101688.84;4990261;28;20039;-65
2022/07/21 10:39:08;;;;;;;7.25;3.78;;;;;;;19.82;100.00;101689.97;4990613;28;20038;-65
2022/07/21 10:41:38;;;;;;;7.40;4.43;;;;;;;19.78;100.00;101696.66;4990536;28;20043;-65
2022/07/21 10:44:23;;;;;;;10.30;4.80;;;;;;;19.75;100.00;101691.50;4990501;28;20062;-65
2022/07/21 10:46:58;;;;;;;5.38;4.45;;;;;;;19.88;100.00;101693.97;4990541;28;20110;-65
2022/07/21 10:49:42;;;;;;;8.43;4.97;;;;;;;19.88;100.00;101693.97;4989496;28;20046;-65
2022/07/21 10:52:35;;;;;;;9.18;5.30;;;;;;;20.08;100.00;101689.47;4989539;28;20030;-65
2022/07/21 10:55:13;;;;;;;7.00;5.32;;;;;;;19.97;100.00;101700.41;4989418;28;20034;-65
2022/07/21 10:57:43;;;;;;;7.63;5.28;;;;;;;20.13;100.00;101695.31;4990277;28;20296;-65
2022/07/21 11:00:29;;;;;;;7.88;5.82;;;;;;;20.02;100.00;101695.44;4994328;28;20066;-65
2022/07/21 11:03:00;;;;;;;8.55;5.50;;;;;;;20.18;100.00;101691.25;5009582;28;20033;-66
2022/07/21 11:05:29;;;;;;;8.02;5.68;;;;;;;20.20;100.00;101684.81;5009603;28;20046;-68
2022/07/21 11:08:14;;;;;;;7.88;5.55;;;;;;;20.08;100.00;101695.78;5009412;28;20042;-67
2022/07/21 11:10:52;;;;;;;12.68;5.85;;;;;;;20.05;100.00;101703.31;5009152;28;20022;-66